SHSO weather

Hospital Santiago Oriente Heliport
Santiago, Santiago Metropolitan Region, Chile

Public forecast

Using degrees Celsius for public forecast. Weather courtesy of forecast.io.

Closest aviation weather report (METAR) to Hospital Santiago Oriente Heliport

Report is more than 2 hours old.

Closest report is Eulogio Sánchez Airport, 3.2 nm (6.0 km) NNE. Retrieved 2019/10/14 23:00 UTC (6 hours ago):

SCTB 142300Z 19004KT 9999 BKN046 13/08 Q1019

Closest aviation forecast (TAF) to Hospital Santiago Oriente Heliport

Closest forecast is Comodoro Arturo Merino Benítez International Airport, 12.3 nm (22.7 km) WNW. Retrieved 2019-10-15 00:00 UTC (5 hours ago):

TAF COR SCEL 142232Z 1500/1524 22010KT 9999 BKN050 TX21/1519Z TN06/ 1511Z BECMG 1501/1503 15004KT BECMG 1508/1510 CAVOK TEMPO 1510/1514 7000 NSC BECMG 1515/1517 18005KT BECMG 1517/1519 20012KT